Time;durP1;ratioP1;P1;durP2;ratioP2;P2;SDS_P1;SDS_P2;PMS_P1;PMS_P2;Temp;Humidity;BMP_temperature;BMP_pressure;BME280_temperature;BME280_humidity;BME280_pressure;Samples;Min_cycle;Max_cycle;Signal;HPM_P1;HPM_P2
2023/12/09 00:01:42;;;;;;;34.22;12.95;;;1.10;99.90;;;;;;4861416;29;20064;-79
2023/12/09 00:04:10;;;;;;;30.23;12.60;;;1.10;99.90;;;;;;4868922;29;20049;-78
2023/12/09 00:06:46;;;;;;;31.30;13.73;;;1.20;99.90;;;;;;4870585;29;20044;-78
2023/12/09 00:09:18;;;;;;;36.58;13.43;;;1.20;99.90;;;;;;4869707;29;20168;-79
2023/12/09 00:11:46;;;;;;;30.40;12.47;;;1.10;99.90;;;;;;4853967;29;20839;-78
2023/12/09 00:14:15;;;;;;;30.00;12.57;;;1.10;99.90;;;;;;4869763;29;20760;-79
2023/12/09 00:16:44;;;;;;;33.50;13.20;;;1.10;99.90;;;;;;4854136;29;20084;-78
2023/12/09 00:19:13;;;;;;;38.90;14.43;;;1.10;99.90;;;;;;4866506;29;20071;-78
2023/12/09 00:21:42;;;;;;;34.63;13.48;;;1.20;99.90;;;;;;4869958;29;20072;-79
2023/12/09 00:24:11;;;;;;;35.03;13.52;;;1.10;99.90;;;;;;4854235;29;20084;-79
2023/12/09 00:26:41;;;;;;;32.25;13.20;;;1.10;99.90;;;;;;4868412;29;20047;-79
2023/12/09 00:29:09;;;;;;;30.75;13.05;;;1.10;99.90;;;;;;4873281;29;20067;-78
2023/12/09 00:31:37;;;;;;;31.35;12.48;;;1.10;99.90;;;;;;4875716;29;21070;-78
2023/12/09 00:34:06;;;;;;;35.60;13.63;;;1.20;99.90;;;;;;4873005;29;20064;-78
2023/12/09 00:36:35;;;;;;;31.25;12.32;;;1.10;99.90;;;;;;4879994;29;20128;-78
2023/12/09 00:39:03;;;;;;;28.40;11.43;;;1.10;99.90;;;;;;4877813;29;20653;-78
2023/12/09 00:41:32;;;;;;;32.72;12.85;;;1.10;99.90;;;;;;4877599;29;20067;-79
2023/12/09 00:44:02;;;;;;;30.27;12.43;;;1.10;99.90;;;;;;4897776;29;20069;-78
2023/12/09 00:46:30;;;;;;;33.95;13.65;;;1.10;99.90;;;;;;4884502;29;20134;-79
2023/12/09 00:48:59;;;;;;;33.50;13.20;;;1.10;99.90;;;;;;4885077;29;20052;-78
2023/12/09 00:51:28;;;;;;;29.42;12.18;;;1.10;99.90;;;;;;4894841;29;20066;-78
2023/12/09 00:53:56;;;;;;;33.50;13.45;;;1.10;99.90;;;;;;4882842;29;20055;-78
2023/12/09 00:56:24;;;;;;;37.03;14.80;;;1.10;99.90;;;;;;4888042;29;20060;-79
2023/12/09 00:59:04;;;;;;;31.00;11.93;;;1.10;99.90;;;;;;4866032;29;20117;-78
2023/12/09 01:01:34;;;;;;;33.33;12.75;;;1.10;99.90;;;;;;4882062;29;20056;-79
2023/12/09 01:04:03;;;;;;;33.33;13.77;;;1.10;99.90;;;;;;4868820;29;20080;-78
2023/12/09 01:06:32;;;;;;;35.67;15.73;;;1.30;99.90;;;;;;4868202;29;20064;-79
2023/12/09 01:09:00;;;;;;;34.55;14.52;;;1.10;99.90;;;;;;4881237;29;20061;-79
2023/12/09 01:11:29;;;;;;;36.25;15.52;;;1.30;99.90;;;;;;4880007;29;20095;-78
2023/12/09 01:13:57;;;;;;;34.88;14.95;;;1.20;99.90;;;;;;4865665;29;20045;-78
2023/12/09 01:16:27;;;;;;;32.00;14.52;;;1.20;99.90;;;;;;4867332;29;20527;-78
2023/12/09 01:18:55;;;;;;;34.40;14.40;;;1.10;99.90;;;;;;4865533;29;20053;-78
2023/12/09 01:21:24;;;;;;;36.22;14.27;;;1.20;99.90;;;;;;4885002;29;20465;-79
2023/12/09 01:23:53;;;;;;;35.08;15.35;;;1.20;99.90;;;;;;4869284;29;20048;-78
2023/12/09 01:26:21;;;;;;;40.72;15.10;;;1.20;99.90;;;;;;4866303;29;20091;-78
2023/12/09 01:28:50;;;;;;;32.05;13.38;;;1.20;99.90;;;;;;4868377;29;20049;-78
2023/12/09 01:31:18;;;;;;;33.55;13.73;;;1.30;99.90;;;;;;4867960;29;20072;-79
2023/12/09 01:33:48;;;;;;;32.97;12.90;;;1.20;99.90;;;;;;4872769;29;20405;-78
2023/12/09 01:36:17;;;;;;;32.80;13.50;;;1.10;99.90;;;;;;4866518;29;20060;-78
2023/12/09 01:38:45;;;;;;;31.42;13.63;;;1.10;99.90;;;;;;4885732;29;20492;-78
2023/12/09 01:41:14;;;;;;;32.67;14.27;;;1.20;99.90;;;;;;4875138;29;20551;-79
2023/12/09 01:43:42;;;;;;;38.63;14.50;;;1.20;99.90;;;;;;4884870;29;20088;-78
2023/12/09 01:46:12;;;;;;;34.60;13.27;;;1.30;99.90;;;;;;4892477;29;20052;-78
2023/12/09 01:48:41;;;;;;;42.13;16.10;;;1.30;99.90;;;;;;4891021;29;20101;-78
2023/12/09 01:51:14;;;;;;;38.33;15.25;;;1.10;99.90;;;;;;4870814;29;20057;-78
2023/12/09 01:53:43;;;;;;;34.67;13.15;;;1.20;99.90;;;;;;4872176;29;20064;-78
2023/12/09 01:56:15;;;;;;;29.08;12.90;;;1.10;99.90;;;;;;4877316;29;20529;-78
2023/12/09 01:58:43;;;;;;;34.05;14.45;;;1.20;99.90;;;;;;4871441;29;20048;-78
2023/12/09 02:01:14;;;;;;;33.13;13.27;;;1.10;99.90;;;;;;4872584;29;20155;-79
2023/12/09 02:03:50;;;;;;;34.50;12.88;;;1.50;99.90;;;;;;4868580;29;20408;-79
2023/12/09 02:06:21;;;;;;;33.53;12.82;;;1.20;99.90;;;;;;4898761;29;20056;-79
2023/12/09 02:08:49;;;;;;;30.85;13.02;;;1.10;99.90;;;;;;4887039;29;20072;-80
2023/12/09 02:11:24;;;;;;;33.67;13.07;;;1.10;99.90;;;;;;4885500;29;20081;-79
2023/12/09 02:13:57;;;;;;;29.13;12.32;;;1.10;99.90;;;;;;4898323;29;20412;-79
2023/12/09 02:16:30;;;;;;;34.50;12.77;;;1.10;99.90;;;;;;4885622;29;20066;-79
2023/12/09 02:18:59;;;;;;;;;;;1.10;99.90;;;;;;4882775;29;20052;-80
2023/12/09 02:21:29;;;;;;;30.15;11.25;;;1.10;99.90;;;;;;4901548;29;19977;-79
2023/12/09 02:23:59;;;;;;;33.90;13.48;;;1.10;99.90;;;;;;4899668;29;22680;-79
2023/12/09 02:26:28;;;;;;;37.00;14.07;;;1.00;99.90;;;;;;4900915;29;22699;-79
2023/12/09 02:29:03;;;;;;;34.28;14.23;;;1.10;99.90;;;;;;4902836;29;21674;-79
2023/12/09 02:31:35;;;;;;;35.83;13.45;;;2.10;99.90;;;;;;4904321;29;20044;-80
2023/12/09 02:34:05;;;;;;;36.20;14.03;;;1.10;99.90;;;;;;4885613;29;20056;-80
2023/12/09 02:36:35;;;;;;;34.33;13.07;;;1.10;99.90;;;;;;4908947;29;20044;-79
2023/12/09 02:39:07;;;;;;;34.30;13.82;;;1.10;99.90;;;;;;4890145;29;20049;-79
2023/12/09 02:41:37;;;;;;;29.70;10.70;;;1.10;99.90;;;;;;4874107;29;20056;-79
2023/12/09 02:44:06;;;;;;;36.00;13.63;;;1.10;99.90;;;;;;4910713;29;20048;-80
2023/12/09 02:46:34;;;;;;;34.70;14.00;;;1.70;99.90;;;;;;4902014;29;20067;-80
2023/12/09 02:49:03;;;;;;;36.35;14.10;;;1.10;99.90;;;;;;4888963;29;20076;-80
2023/12/09 02:51:32;;;;;;;37.00;13.80;;;1.10;99.90;;;;;;4884306;29;20119;-80
2023/12/09 02:54:00;;;;;;;41.85;14.35;;;1.10;99.90;;;;;;4900387;29;20157;-79
2023/12/09 02:56:31;;;;;;;38.30;12.98;;;1.10;99.90;;;;;;4885085;29;20049;-79
2023/12/09 02:58:59;;;;;;;38.20;13.82;;;1.10;99.90;;;;;;4872373;29;20056;-79
2023/12/09 03:01:28;;;;;;;37.92;14.07;;;1.10;99.90;;;;;;4873884;29;20063;-79
2023/12/09 03:03:56;;;;;;;38.92;14.68;;;1.10;99.90;;;;;;4875469;29;20060;-79
2023/12/09 03:06:25;;;;;;;36.08;13.50;;;1.50;99.90;;;;;;4890696;29;20132;-79
2023/12/09 03:08:54;;;;;;;34.08;12.57;;;1.10;99.90;;;;;;4873518;29;20063;-79
2023/12/09 03:11:22;;;;;;;38.67;14.27;;;1.70;99.90;;;;;;4884128;29;20083;-80
2023/12/09 03:13:52;;;;;;;33.85;13.02;;;0.30;99.90;;;;;;4875110;29;20061;-79
2023/12/09 03:16:20;;;;;;;36.15;13.93;;;1.10;99.90;;;;;;4852296;29;20169;-78
2023/12/09 03:18:49;;;;;;;33.90;13.57;;;1.10;99.90;;;;;;4879863;29;20805;-78
2023/12/09 03:21:17;;;;;;;37.40;13.25;;;1.10;99.90;;;;;;4871866;29;20057;-78
2023/12/09 03:23:46;;;;;;;32.60;13.15;;;1.80;99.90;;;;;;4879160;29;20064;-78
2023/12/09 03:26:18;;;;;;;39.15;14.02;;;1.10;99.90;;;;;;4877988;29;20056;-78
2023/12/09 03:28:47;;;;;;;38.35;13.18;;;1.40;99.90;;;;;;4880947;29;20049;-79
2023/12/09 03:31:17;;;;;;;35.80;13.32;;;1.10;99.90;;;;;;4879345;29;20147;-79
2023/12/09 03:33:45;;;;;;;37.42;14.10;;;1.10;99.90;;;;;;4863033;29;20169;-78
2023/12/09 03:36:14;;;;;;;38.03;13.50;;;1.10;99.90;;;;;;4876673;29;20048;-78
2023/12/09 03:38:43;;;;;;;38.63;15.30;;;1.20;99.90;;;;;;4879918;29;20061;-79
2023/12/09 03:41:11;;;;;;;39.88;15.18;;;1.10;99.90;;;;;;4859004;29;20069;-78
2023/12/09 03:43:40;;;;;;;35.60;14.07;;;2.10;99.90;;;;;;4876450;29;22641;-78
2023/12/09 03:46:08;;;;;;;41.60;13.45;;;1.10;99.90;;;;;;4876043;29;20064;-79
2023/12/09 03:48:38;;;;;;;37.70;13.20;;;1.10;99.90;;;;;;4847852;29;20055;-79
2023/12/09 03:51:07;;;;;;;34.40;14.10;;;1.10;99.90;;;;;;4857102;29;20063;-78
2023/12/09 03:53:35;;;;;;;40.65;14.52;;;1.10;99.90;;;;;;4873280;29;20153;-78
2023/12/09 03:56:04;;;;;;;35.63;14.18;;;1.10;99.90;;;;;;4857672;29;20837;-78
2023/12/09 03:58:33;;;;;;;36.10;14.25;;;1.10;99.90;;;;;;4861613;29;20059;-78
2023/12/09 04:01:02;;;;;;;39.67;13.75;;;1.10;99.90;;;;;;4856917;29;20052;-78
2023/12/09 04:03:30;;;;;;;38.40;14.38;;;1.10;99.90;;;;;;4875519;29;20079;-78
2023/12/09 04:06:01;;;;;;;35.35;13.07;;;1.10;99.90;;;;;;4871347;29;20061;-78
2023/12/09 04:08:29;;;;;;;41.63;15.30;;;1.10;99.90;;;;;;4872567;29;20064;-78
2023/12/09 04:10:58;;;;;;;36.53;13.60;;;1.10;99.90;;;;;;4870447;29;20056;-77
2023/12/09 04:13:27;;;;;;;34.65;12.60;;;1.10;99.90;;;;;;4853172;29;20056;-78
2023/12/09 04:15:55;;;;;;;38.95;14.02;;;1.10;99.90;;;;;;4864564;29;20077;-78
2023/12/09 04:18:24;;;;;;;36.00;13.77;;;1.10;99.90;;;;;;4865523;29;20053;-78
2023/12/09 04:20:52;;;;;;;37.58;14.13;;;1.10;99.90;;;;;;4874812;29;20052;-78
2023/12/09 04:23:22;;;;;;;34.78;13.88;;;1.10;99.90;;;;;;4875716;29;20052;-78
2023/12/09 04:25:51;;;;;;;39.25;14.80;;;1.10;99.90;;;;;;4880987;29;20064;-78
2023/12/09 04:28:20;;;;;;;33.65;12.35;;;1.10;99.90;;;;;;4877775;29;20048;-78
2023/12/09 04:30:48;;;;;;;34.30;13.80;;;1.10;99.90;;;;;;4868768;29;20116;-77
2023/12/09 04:33:16;;;;;;;40.05;14.88;;;1.10;99.90;;;;;;4875279;29;20200;-77
2023/12/09 04:35:45;;;;;;;36.58;14.93;;;1.00;99.90;;;;;;4858903;29;20534;-78
2023/12/09 04:38:13;;;;;;;41.35;15.07;;;1.10;99.90;;;;;;4866964;29;20052;-77
2023/12/09 04:40:43;;;;;;;39.00;15.57;;;1.10;99.90;;;;;;4872199;29;20060;-77
2023/12/09 04:43:12;;;;;;;40.10;15.07;;;1.10;99.90;;;;;;4873609;29;20064;-77
2023/12/09 04:45:40;;;;;;;37.50;14.05;;;1.10;99.90;;;;;;4871259;29;20053;-77
2023/12/09 04:48:09;;;;;;;39.45;14.25;;;1.00;99.90;;;;;;4857160;29;20191;-78
2023/12/09 04:50:37;;;;;;;38.05;13.38;;;1.10;99.90;;;;;;4857046;29;20059;-78
2023/12/09 04:53:06;;;;;;;39.05;13.85;;;1.10;99.90;;;;;;4862155;29;20064;-78
2023/12/09 04:55:34;;;;;;;38.83;14.27;;;1.10;99.90;;;;;;4854516;29;20100;-77
2023/12/09 04:58:04;;;;;;;40.13;15.90;;;1.10;99.90;;;;;;4868475;29;20781;-78
2023/12/09 05:00:32;;;;;;;38.08;14.40;;;1.10;99.90;;;;;;4862138;29;20233;-77
2023/12/09 05:03:01;;;;;;;37.83;14.27;;;1.10;99.90;;;;;;4845725;29;20066;-78
2023/12/09 05:05:29;;;;;;;44.17;16.85;;;1.10;99.90;;;;;;4844710;29;20175;-78
2023/12/09 05:07:58;;;;;;;42.60;15.75;;;1.10;99.90;;;;;;4861817;29;20057;-77
2023/12/09 05:10:26;;;;;;;41.58;15.05;;;1.00;99.90;;;;;;4861229;29;20053;-78
2023/12/09 05:12:55;;;;;;;36.45;14.93;;;1.00;99.90;;;;;;4844623;29;22639;-77
2023/12/09 05:15:25;;;;;;;43.88;14.85;;;1.10;99.90;;;;;;4866253;29;20056;-78
2023/12/09 05:17:54;;;;;;;42.10;14.27;;;1.00;99.90;;;;;;4867465;29;20062;-78
2023/12/09 05:20:23;;;;;;;39.90;15.25;;;1.10;99.90;;;;;;4866354;29;20076;-77
2023/12/09 05:22:51;;;;;;;36.90;13.93;;;1.00;99.90;;;;;;4866569;29;20119;-79
2023/12/09 05:25:20;;;;;;;42.53;15.93;;;1.00;99.90;;;;;;4852066;29;20091;-77
2023/12/09 05:27:48;;;;;;;37.67;13.55;;;1.10;99.90;;;;;;4849288;29;20052;-77
2023/12/09 05:30:17;;;;;;;38.88;14.25;;;1.10;99.90;;;;;;4867699;29;20067;-78
2023/12/09 05:32:46;;;;;;;44.65;14.25;;;1.10;99.90;;;;;;4865496;29;20052;-78
2023/12/09 05:35:15;;;;;;;36.85;13.98;;;1.00;99.90;;;;;;4870747;29;20039;-79
2023/12/09 05:37:43;;;;;;;45.28;15.45;;;1.00;99.90;;;;;;4878445;29;20049;-79
2023/12/09 05:40:13;;;;;;;39.45;14.55;;;1.00;99.90;;;;;;4894137;29;20041;-80
2023/12/09 05:42:41;;;;;;;42.47;14.82;;;1.00;99.90;;;;;;4868454;29;20055;-79
2023/12/09 05:45:11;;;;;;;35.80;14.85;;;1.00;99.90;;;;;;4867201;29;21746;-79
2023/12/09 05:47:39;;;;;;;40.00;14.52;;;1.00;99.90;;;;;;4866988;29;20041;-79
2023/12/09 05:50:10;;;;;;;41.38;15.88;;;1.10;99.90;;;;;;4884175;29;22043;-79
2023/12/09 05:52:38;;;;;;;43.55;15.90;;;1.00;99.90;;;;;;4867557;29;20048;-79
2023/12/09 05:55:07;;;;;;;41.70;15.75;;;1.10;99.90;;;;;;4866921;29;20056;-79
2023/12/09 05:57:36;;;;;;;42.20;15.57;;;1.00;99.90;;;;;;4859863;29;20044;-79
2023/12/09 06:00:06;;;;;;;48.80;16.90;;;1.90;99.90;;;;;;4897386;29;20056;-79
2023/12/09 06:02:35;;;;;;;33.88;14.23;;;1.00;99.90;;;;;;4867095;29;20836;-79
2023/12/09 06:05:05;;;;;;;41.72;15.52;;;1.00;99.90;;;;;;4865274;29;20193;-79
2023/12/09 06:07:36;;;;;;;37.15;15.43;;;1.00;99.90;;;;;;4867877;29;20037;-79
2023/12/09 06:10:06;;;;;;;39.88;14.80;;;0.20;99.90;;;;;;4894576;29;20112;-79
2023/12/09 06:12:38;;;;;;;41.33;14.95;;;1.00;99.90;;;;;;4858952;29;20040;-79
2023/12/09 06:15:08;;;;;;;39.22;14.73;;;1.00;99.90;;;;;;4867997;29;21914;-79
2023/12/09 06:17:37;;;;;;;39.17;15.30;;;1.00;99.90;;;;;;4866914;29;20037;-79
2023/12/09 06:20:08;;;;;;;38.97;14.57;;;1.00;99.90;;;;;;4859345;29;20032;-80
2023/12/09 06:22:38;;;;;;;39.75;14.93;;;1.00;99.90;;;;;;4882845;29;20040;-79
2023/12/09 06:25:09;;;;;;;44.50;14.80;;;1.00;99.90;;;;;;4880959;29;20059;-79
2023/12/09 06:27:41;;;;;;;38.20;15.13;;;1.00;99.90;;;;;;4885032;29;20043;-79
2023/12/09 06:30:11;;;;;;;39.25;14.70;;;1.10;99.90;;;;;;4881924;29;20162;-80
2023/12/09 06:32:41;;;;;;;39.33;15.20;;;0.10;99.90;;;;;;4874314;29;20036;-79
2023/12/09 06:35:11;;;;;;;45.90;15.10;;;1.00;99.90;;;;;;4876111;29;20073;-80
2023/12/09 06:37:42;;;;;;;39.97;15.60;;;1.00;99.90;;;;;;4882874;29;20036;-79
2023/12/09 06:40:12;;;;;;;38.63;14.32;;;1.00;99.90;;;;;;4875123;29;20043;-79
2023/12/09 06:42:41;;;;;;;39.53;15.25;;;1.00;99.90;;;;;;4884984;29;20175;-80
2023/12/09 06:45:10;;;;;;;42.88;15.90;;;0.70;99.90;;;;;;4881707;29;20163;-79
2023/12/09 06:47:39;;;;;;;43.20;15.68;;;0.90;99.90;;;;;;4865271;29;20036;-80
2023/12/09 06:50:09;;;;;;;41.47;16.35;;;1.00;99.90;;;;;;4866521;29;20152;-79
2023/12/09 06:52:39;;;;;;;39.08;14.77;;;1.00;99.90;;;;;;4866788;29;21935;-80
2023/12/09 06:55:11;;;;;;;40.28;15.80;;;1.00;99.90;;;;;;4891678;29;20063;-80
2023/12/09 06:57:41;;;;;;;38.72;14.38;;;1.10;99.90;;;;;;4889163;29;20109;-80
2023/12/09 07:00:25;;;;;;;37.20;14.48;;;1.10;99.90;;;;;;4903541;29;20072;-80
2023/12/09 07:03:29;;;;;;;41.03;15.13;;;0.10;99.90;;;;;;4898798;29;20040;-80
2023/12/09 07:11:24;;;;;;;37.63;13.52;;;1.10;99.90;;;;;;4829612;29;20049;-80
2023/12/09 08:03:09;;;;;;;39.20;14.57;;;1.30;99.90;;;;;;4546098;31;20078;-80
2023/12/09 08:05:40;;;;;;;36.90;14.45;;;1.50;99.90;;;;;;4522827;31;20117;-80
2023/12/09 08:08:10;;;;;;;41.08;16.70;;;1.50;99.90;;;;;;4548742;31;20828;-80
2023/12/09 08:10:39;;;;;;;40.95;15.65;;;1.30;99.90;;;;;;4595521;31;20080;-80
2023/12/09 08:13:09;;;;;;;41.70;16.13;;;1.80;99.90;;;;;;4576204;31;20056;-80
2023/12/09 08:15:39;;;;;;;40.15;15.85;;;1.30;99.90;;;;;;4611095;30;20108;-80
2023/12/09 08:18:08;;;;;;;45.55;15.57;;;1.30;99.90;;;;;;4609646;30;20075;-80
2023/12/09 08:20:37;;;;;;;37.58;14.85;;;1.40;99.90;;;;;;4588797;30;20064;-80
2023/12/09 08:23:06;;;;;;;38.22;14.93;;;1.80;99.90;;;;;;4666664;30;20058;-79
2023/12/09 08:25:37;;;;;;;38.05;14.98;;;2.60;99.90;;;;;;4671408;30;20085;-81
2023/12/09 08:28:06;;;;;;;38.47;16.65;;;1.30;99.90;;;;;;4677415;30;20065;-79
2023/12/09 08:30:34;;;;;;;39.15;15.57;;;2.10;99.90;;;;;;4693931;30;20061;-79
2023/12/09 08:33:04;;;;;;;37.75;15.27;;;1.40;99.90;;;;;;4714632;30;20063;-79
2023/12/09 08:35:33;;;;;;;40.30;16.23;;;2.00;99.90;;;;;;4739486;30;20071;-79
2023/12/09 08:38:01;;;;;;;37.50;15.43;;;1.40;99.90;;;;;;4779878;29;20058;-79
2023/12/09 08:40:29;;;;;;;45.05;16.35;;;1.90;99.90;;;;;;4795458;29;22203;-78
2023/12/09 08:42:58;;;;;;;56.90;18.63;;;1.50;99.90;;;;;;4864863;29;20059;-79
2023/12/09 08:45:26;;;;;;;64.00;20.75;;;1.50;99.90;;;;;;4870358;29;20075;-79
2023/12/09 08:47:55;;;;;;;44.28;18.08;;;1.50;99.90;;;;;;4871290;29;20124;-78
2023/12/09 08:50:25;;;;;;;87.03;24.42;;;1.50;99.90;;;;;;4869473;29;20188;-78
2023/12/09 08:52:53;;;;;;;56.97;19.27;;;1.60;99.90;;;;;;4863563;29;20060;-78
2023/12/09 08:55:22;;;;;;;59.38;22.02;;;1.40;99.90;;;;;;4868040;29;20067;-78
2023/12/09 08:57:51;;;;;;;45.78;16.40;;;1.60;99.90;;;;;;4849105;29;20060;-78
2023/12/09 09:00:25;;;;;;;53.33;16.92;;;1.60;99.90;;;;;;4865744;29;20155;-78
2023/12/09 09:02:55;;;;;;;71.35;25.33;;;1.60;99.90;;;;;;4863488;29;20186;-78
2023/12/09 09:05:25;;;;;;;72.65;26.05;;;1.70;99.90;;;;;;4862825;29;20736;-77
2023/12/09 09:07:54;;;;;;;64.07;24.98;;;1.70;99.90;;;;;;4862500;29;20049;-77
2023/12/09 09:10:23;;;;;;;105.35;34.92;;;1.80;99.90;;;;;;4840683;29;20056;-77
2023/12/09 09:12:51;;;;;;;100.95;33.40;;;1.90;99.90;;;;;;4864303;29;20040;-78
2023/12/09 09:15:20;;;;;;;78.45;29.33;;;1.80;99.90;;;;;;4864399;29;20060;-77
2023/12/09 09:17:49;;;;;;;57.33;22.38;;;1.90;99.90;;;;;;4857492;29;21051;-77
2023/12/09 09:20:18;;;;;;;57.33;21.33;;;1.90;99.90;;;;;;4848573;29;22612;-77
2023/12/09 09:22:48;;;;;;;53.38;20.30;;;2.00;99.90;;;;;;4863547;29;20044;-78
2023/12/09 09:25:17;;;;;;;64.43;23.73;;;2.00;99.90;;;;;;4867064;29;20052;-77
2023/12/09 09:27:45;;;;;;;58.70;21.38;;;2.00;99.90;;;;;;4865971;29;20064;-78
2023/12/09 09:30:19;;;;;;;;;;;2.00;99.90;;;;;;4861939;29;20068;-78
2023/12/09 09:32:48;;;;;;;51.80;17.27;;;2.10;99.90;;;;;;4861737;29;19971;-77
2023/12/09 09:35:17;;;;;;;52.28;20.35;;;2.10;99.90;;;;;;4866191;29;20717;-78
2023/12/09 09:37:46;;;;;;;57.95;20.00;;;2.10;99.90;;;;;;4867270;29;20164;-78
2023/12/09 09:40:16;;;;;;;52.67;17.88;;;2.10;99.90;;;;;;4880910;29;20041;-78
2023/12/09 09:42:51;;;;;;;60.85;20.00;;;2.10;99.90;;;;;;4868796;29;20049;-78
2023/12/09 09:45:23;;;;;;;50.15;17.17;;;2.10;99.90;;;;;;4869141;29;20521;-79
2023/12/09 09:48:04;;;;;;;50.58;16.23;;;2.10;99.90;;;;;;4880072;29;20127;-78
2023/12/09 09:50:40;;;;;;;47.97;16.55;;;2.10;99.90;;;;;;4870855;29;20191;-78
2023/12/09 09:53:12;;;;;;;48.63;17.08;;;2.20;99.90;;;;;;4868707;29;20053;-78
2023/12/09 09:55:41;;;;;;;47.70;16.67;;;2.20;99.90;;;;;;4864895;29;22664;-78
2023/12/09 09:58:10;;;;;;;54.58;17.80;;;2.30;99.90;;;;;;4872308;29;20421;-77
2023/12/09 10:00:39;;;;;;;50.05;16.60;;;2.30;99.90;;;;;;4887168;29;20041;-78
2023/12/09 10:03:08;;;;;;;49.75;15.20;;;2.30;99.90;;;;;;4872634;29;20135;-78
2023/12/09 10:05:37;;;;;;;44.47;16.23;;;2.30;99.90;;;;;;4854008;29;20064;-77
2023/12/09 10:08:06;;;;;;;53.20;15.48;;;2.30;99.90;;;;;;4860517;29;20064;-78
2023/12/09 10:10:36;;;;;;;43.90;17.48;;;2.30;99.90;;;;;;4870024;29;20209;-78
2023/12/09 10:13:04;;;;;;;45.42;15.32;;;2.40;99.90;;;;;;4869538;29;20093;-78
2023/12/09 10:15:33;;;;;;;45.75;14.43;;;2.40;99.90;;;;;;4867576;29;20113;-78
2023/12/09 10:18:03;;;;;;;47.83;16.30;;;2.40;99.90;;;;;;4858609;29;20057;-78
2023/12/09 10:20:35;;;;;;;49.10;16.40;;;2.40;99.90;;;;;;4857215;29;20053;-77
2023/12/09 10:23:04;;;;;;;44.92;15.82;;;2.40;99.90;;;;;;4862010;29;20539;-78
2023/12/09 10:25:32;;;;;;;43.25;16.65;;;2.40;99.90;;;;;;4854506;29;20916;-78
2023/12/09 10:28:02;;;;;;;45.40;13.80;;;2.40;99.90;;;;;;4861688;29;20052;-77
2023/12/09 10:30:31;;;;;;;47.00;15.60;;;2.50;99.90;;;;;;4878208;29;20092;-78
2023/12/09 10:33:00;;;;;;;46.60;15.82;;;2.50;99.90;;;;;;4869200;29;20060;-78
2023/12/09 10:35:29;;;;;;;41.08;14.88;;;2.50;99.90;;;;;;4855786;29;20048;-78
2023/12/09 10:38:02;;;;;;;41.35;14.70;;;2.40;99.90;;;;;;4871774;29;20159;-78
2023/12/09 10:40:30;;;;;;;41.95;15.25;;;2.50;99.90;;;;;;4855526;29;23838;-79
2023/12/09 10:42:59;;;;;;;49.72;16.95;;;2.50;99.90;;;;;;4879494;29;20056;-79
2023/12/09 10:45:29;;;;;;;46.17;16.02;;;2.50;99.90;;;;;;4881063;29;20055;-78
2023/12/09 10:47:57;;;;;;;52.20;16.75;;;2.40;99.90;;;;;;4856155;29;20446;-78
2023/12/09 10:50:26;;;;;;;40.97;15.43;;;2.50;99.90;;;;;;4871209;29;20060;-78
2023/12/09 10:52:55;;;;;;;50.30;16.40;;;2.50;99.90;;;;;;4870297;29;20041;-78
2023/12/09 10:55:23;;;;;;;56.80;16.00;;;2.50;99.90;;;;;;4870855;29;20049;-78
2023/12/09 10:57:52;;;;;;;45.85;13.77;;;2.60;99.90;;;;;;4866495;29;20060;-78
2023/12/09 11:00:22;;;;;;;48.67;17.45;;;2.60;99.90;;;;;;4858853;29;20071;-79
2023/12/09 11:02:53;;;;;;;34.15;12.30;;;2.50;99.90;;;;;;4854699;29;20052;-78
2023/12/09 11:05:23;;;;;;;41.53;14.05;;;2.50;99.90;;;;;;4869798;29;20143;-79
2023/12/09 11:07:53;;;;;;;44.40;16.02;;;2.50;99.90;;;;;;4872006;29;20107;-78
2023/12/09 11:10:22;;;;;;;34.38;11.80;;;2.40;99.90;;;;;;4870733;29;20051;-78
2023/12/09 11:12:51;;;;;;;37.60;13.82;;;2.40;99.90;;;;;;4871787;29;20068;-79
2023/12/09 11:15:23;;;;;;;39.83;14.25;;;2.30;99.90;;;;;;4887339;29;20546;-79
2023/12/09 11:17:53;;;;;;;43.38;15.02;;;2.40;99.90;;;;;;4862764;29;20064;-79
2023/12/09 11:20:24;;;;;;;32.95;13.48;;;2.30;99.90;;;;;;4865236;29;20056;-79
2023/12/09 11:22:54;;;;;;;44.13;15.52;;;2.30;99.90;;;;;;4867712;29;20048;-79
2023/12/09 11:25:29;;;;;;;38.95;14.23;;;1.70;99.90;;;;;;4891206;29;20092;-79
2023/12/09 11:28:22;;;;;;;40.95;15.25;;;1.90;99.90;;;;;;4912828;29;20094;-80
2023/12/09 11:30:58;;;;;;;38.88;15.05;;;2.30;99.90;;;;;;4885035;29;20075;-79
2023/12/09 11:33:32;;;;;;;39.20;14.52;;;2.20;99.90;;;;;;4854694;29;20061;-79
2023/12/09 11:40:09;;;;;;;34.83;12.30;;;2.20;99.90;;;;;;4794155;29;20523;-78
2023/12/09 11:42:39;;;;;;;37.90;13.95;;;2.30;99.90;;;;;;4781336;29;20062;-79
2023/12/09 11:45:12;;;;;;;32.85;11.45;;;2.20;99.90;;;;;;4761829;30;20056;-79
2023/12/09 11:47:51;;;;;;;28.90;10.68;;;2.10;99.90;;;;;;4756361;30;20067;-79
2023/12/09 11:50:28;;;;;;;30.45;12.40;;;2.10;99.90;;;;;;4749368;30;20056;-79
2023/12/09 11:53:01;;;;;;;32.40;11.77;;;1.70;99.90;;;;;;4752512;30;20517;-79
2023/12/09 11:55:33;;;;;;;40.67;12.55;;;2.20;99.90;;;;;;4739860;30;20170;-79
2023/12/09 11:58:05;;;;;;;35.55;11.35;;;1.50;99.90;;;;;;4776849;29;20058;-79
2023/12/09 12:00:37;;;;;;;38.05;12.50;;;2.20;99.90;;;;;;4812068;29;20123;-79
2023/12/09 12:03:13;;;;;;;34.15;11.88;;;2.20;99.90;;;;;;4854615;29;20058;-79
2023/12/09 12:05:47;;;;;;;42.13;13.82;;;2.20;99.90;;;;;;4839785;29;20046;-79
2023/12/09 12:08:20;;;;;;;39.97;13.10;;;2.20;99.90;;;;;;4854295;29;20576;-80
2023/12/09 12:10:51;;;;;;;43.53;13.52;;;2.10;99.90;;;;;;4816332;29;20058;-79
2023/12/09 12:13:22;;;;;;;55.92;17.35;;;2.10;99.90;;;;;;4834171;29;20114;-79
2023/12/09 12:15:57;;;;;;;48.53;17.02;;;2.20;99.90;;;;;;4822295;29;20170;-79
2023/12/09 12:18:31;;;;;;;35.95;13.13;;;2.10;99.90;;;;;;4834248;29;20070;-79
2023/12/09 12:21:03;;;;;;;38.15;13.80;;;2.10;99.90;;;;;;4824855;29;20050;-79
2023/12/09 12:26:22;;;;;;;31.02;11.75;;;2.10;99.90;;;;;;4895421;29;20060;-79
2023/12/09 12:49:52;;;;;;;38.63;13.35;;;2.10;99.90;;;;;;4812642;29;20141;-82
2023/12/09 12:52:59;;;;;;;36.70;11.95;;;2.00;99.90;;;;;;4771288;30;20067;-85
2023/12/09 12:59:43;;;;;;;37.17;14.32;;;2.10;99.90;;;;;;4674358;30;20059;-81
2023/12/09 13:02:13;;;;;;;37.38;13.90;;;2.10;99.90;;;;;;4677724;30;20062;-83
2023/12/09 13:04:45;;;;;;;33.10;12.43;;;2.00;99.90;;;;;;4670504;30;20078;-81
2023/12/09 13:07:15;;;;;;;37.33;13.00;;;2.70;99.90;;;;;;4664321;30;20070;-81
2023/12/09 13:09:44;;;;;;;41.45;13.77;;;2.00;99.90;;;;;;4664645;30;20058;-81
2023/12/09 13:12:14;;;;;;;38.47;13.48;;;2.00;99.90;;;;;;4732107;30;20112;-83
2023/12/09 13:14:43;;;;;;;39.90;13.93;;;2.00;99.90;;;;;;4789155;29;20058;-81
2023/12/09 13:17:12;;;;;;;40.78;14.30;;;2.00;99.90;;;;;;4788614;29;20104;-83
2023/12/09 13:19:41;;;;;;;35.33;13.93;;;2.00;99.90;;;;;;4767973;29;20044;-81
2023/12/09 13:22:10;;;;;;;39.20;13.88;;;2.00;99.90;;;;;;4785830;29;20111;-81
2023/12/09 13:24:39;;;;;;;38.72;13.75;;;2.00;99.90;;;;;;4788593;29;20048;-81
2023/12/09 13:27:08;;;;;;;40.65;14.07;;;1.90;99.90;;;;;;4785069;29;20074;-81
2023/12/09 13:29:39;;;;;;;39.63;13.18;;;2.00;99.90;;;;;;4781930;29;20356;-80
2023/12/09 13:32:08;;;;;;;42.00;13.93;;;2.00;99.90;;;;;;4780950;29;20075;-81
2023/12/09 13:34:36;;;;;;;41.55;14.23;;;2.00;99.90;;;;;;4780271;29;20059;-81
2023/12/09 13:37:06;;;;;;;42.45;14.27;;;0.90;99.90;;;;;;4778451;29;20055;-81
2023/12/09 13:39:35;;;;;;;40.92;14.93;;;1.90;99.90;;;;;;4764527;29;20154;-81
2023/12/09 13:42:04;;;;;;;40.40;14.00;;;1.90;99.90;;;;;;4788204;29;20143;-81
2023/12/09 13:44:33;;;;;;;38.78;13.50;;;1.90;99.90;;;;;;4832500;29;20042;-81
2023/12/09 13:47:06;;;;;;;37.25;13.65;;;1.90;99.90;;;;;;4831311;29;20054;-79
2023/12/09 13:49:35;;;;;;;43.97;15.50;;;1.90;99.90;;;;;;4847471;29;20056;-79
2023/12/09 13:52:05;;;;;;;38.70;13.60;;;1.50;99.90;;;;;;4864503;29;20125;-79
2023/12/09 13:54:35;;;;;;;37.33;14.93;;;1.90;99.90;;;;;;4864619;29;20068;-79
2023/12/09 13:57:04;;;;;;;35.20;13.15;;;1.90;99.90;;;;;;4888169;29;20052;-79
2023/12/09 13:59:32;;;;;;;36.70;13.52;;;1.90;99.90;;;;;;4881386;29;20065;-79
2023/12/09 14:02:01;;;;;;;49.10;15.00;;;1.80;99.90;;;;;;4864667;29;20094;-79
2023/12/09 14:04:31;;;;;;;36.75;12.57;;;1.80;99.90;;;;;;4869079;29;20049;-79
2023/12/09 14:07:00;;;;;;;40.03;15.30;;;1.90;99.90;;;;;;4896186;29;20084;-79
2023/12/09 14:09:29;;;;;;;41.67;15.23;;;1.80;99.90;;;;;;4899320;29;20057;-79
2023/12/09 14:11:57;;;;;;;45.92;14.95;;;1.80;99.90;;;;;;4879997;29;20061;-80
2023/12/09 14:14:27;;;;;;;38.88;15.00;;;1.80;99.90;;;;;;4876344;29;20066;-79
2023/12/09 14:16:56;;;;;;;51.60;16.25;;;1.80;99.90;;;;;;4861503;29;21961;-80
2023/12/09 14:19:25;;;;;;;49.30;16.05;;;1.80;99.90;;;;;;4899457;29;20073;-79